Huslia Airport Huslia US
ICAO: PAHL
IATA:
Category: Medium
Scheduled Services:

Elevation: 220 ft
TransAlt. 18000 ft.

Airport Communications:
AWOS 3:135.75
ANCHORAGE CNTR:127
CTAF:122.8
FAIRBANKS RDO:122.4

PAHL Zoom In..

Runways:

(A) RW 03 length 4000 ft width 75 ft
---- / hdg 32

(B) RW 21 length 4000 ft width 75 ft
---- / hdg 212

Location; PAHL
Day. 21 / Time. 23.56 Zulu
* Altimeter: 30.19
* Temperature: -33° c. 27.4°f.
* Wind from: 000° Speed 00 kn.
Dewpoint: -38° c.
Visibility: 10 Statute Miles.
Clouds: Clear (automated report).

PAHL 212356Z AUTO 00000KT 10SM CLR M33/M38 A3019 RMK AO2 SLP236 T13331378 11333 21411 58001 FZRANO


Wind - Calm.

jpsM music video
CHECK IT OUT

jpsM - It Moves..

 
jpsmedia.com for Web Design  worldairports.se 2018   terms of use